Time;durP1;ratioP1;P1;durP2;ratioP2;P2;SDS_P1;SDS_P2;PMS_P1;PMS_P2;Temp;Humidity;BMP_temperature;BMP_pressure;BME280_temperature;BME280_humidity;BME280_pressure;Samples;Min_cycle;Max_cycle;Signal;HPM_P1;HPM_P2
2024/03/13 00:00:04;;;;;;;34.37;19.47;;;;;;;4.52;100.00;100100.19;123817;1099;104386;-78
2024/03/13 00:03:03;;;;;;;34.90;18.90;;;;;;;4.52;100.00;100096.68;123851;1099;104175;-78
2024/03/13 00:05:35;;;;;;;35.50;18.97;;;;;;;4.53;100.00;100086.37;123833;1099;104246;-79
2024/03/13 00:08:07;;;;;;;35.73;18.77;;;;;;;4.50;100.00;100074.13;123910;1099;104344;-79
2024/03/13 00:10:39;;;;;;;35.97;18.47;;;;;;;4.49;100.00;100069.73;123733;1099;104261;-79
2024/03/13 00:13:11;;;;;;;38.03;18.27;;;;;;;4.48;100.00;100070.53;123991;1099;104329;-79
2024/03/13 00:15:42;;;;;;;40.33;18.53;;;;;;;4.48;100.00;100060.14;123782;1099;104239;-78
2024/03/13 00:18:14;;;;;;;35.60;18.07;;;;;;;4.48;100.00;100067.05;123919;1099;104265;-79
2024/03/13 00:20:46;;;;;;;39.33;17.90;;;;;;;4.48;100.00;100072.25;123960;1098;104280;-79
2024/03/13 00:23:18;;;;;;;35.30;17.30;;;;;;;4.48;100.00;100072.25;123997;1099;104210;-79
2024/03/13 00:25:50;;;;;;;29.83;16.00;;;;;;;4.47;100.00;100071.37;123871;1099;104472;-79
2024/03/13 00:28:22;;;;;;;33.35;16.40;;;;;;;4.48;100.00;100067.94;123767;1099;104789;-78
2024/03/13 00:30:53;;;;;;;31.40;15.93;;;;;;;4.50;100.00;100068.02;123943;1099;104679;-79
2024/03/13 00:33:25;;;;;;;32.17;15.97;;;;;;;4.50;100.00;100066.33;123855;1099;104268;-79
2024/03/13 00:35:57;;;;;;;30.87;15.43;;;;;;;4.52;100.00;100066.41;123846;1099;104323;-78
2024/03/13 00:38:28;;;;;;;31.35;15.75;;;;;;;4.53;100.00;100060.38;123975;1099;104423;-78
2024/03/13 00:41:00;;;;;;;32.20;15.50;;;;;;;4.54;100.00;100063.89;123846;1099;104406;-79
2024/03/13 00:43:31;;;;;;;30.70;15.67;;;;;;;4.55;100.00;100069.17;123954;1098;104168;-79
2024/03/13 00:46:02;;;;;;;30.63;15.00;;;;;;;4.57;100.00;100064.94;124145;1099;104315;-79
2024/03/13 00:48:35;;;;;;;31.20;16.57;;;;;;;4.58;100.00;100073.63;123986;1099;104272;-78
2024/03/13 00:51:09;;;;;;;29.63;15.80;;;;;;;4.58;100.00;100074.53;123909;1099;104277;-79
2024/03/13 00:53:40;;;;;;;30.02;16.87;;;;;;;4.59;100.00;100071.09;123972;1098;104238;-79
2024/03/13 00:56:12;;;;;;;30.57;17.00;;;;;;;4.61;100.00;100063.38;123982;1099;104245;-79
2024/03/13 00:58:43;;;;;;;35.90;18.33;;;;;;;4.62;100.00;100060.87;123814;1099;104296;-79
2024/03/13 01:01:17;;;;;;;31.87;17.90;;;;;;;4.63;100.00;100062.66;123951;1099;104214;-79
2024/03/13 01:03:49;;;;;;;32.37;17.93;;;;;;;4.66;100.00;100059.34;123851;1099;104270;-78
2024/03/13 01:06:20;;;;;;;33.77;17.53;;;;;;;4.66;100.00;100062.83;123735;1099;104641;-80
2024/03/13 01:08:52;;;;;;;30.17;17.03;;;;;;;4.64;100.00;100059.27;123756;1098;104281;-80
2024/03/13 01:11:23;;;;;;;32.60;17.30;;;;;;;4.63;100.00;100062.66;123825;1099;104434;-79
2024/03/13 01:13:54;;;;;;;33.33;17.13;;;;;;;4.62;100.00;100057.39;123828;1099;104358;-79
2024/03/13 01:16:26;;;;;;;30.03;17.70;;;;;;;4.65;100.00;100065.34;123732;1099;104315;-79
2024/03/13 01:18:59;;;;;;;33.87;18.57;;;;;;;4.65;100.00;100063.63;124220;1099;104677;-79
2024/03/13 01:21:30;;;;;;;30.45;15.60;;;;;;;4.65;100.00;100061.03;123608;1099;104257;-79
2024/03/13 01:24:02;;;;;;;32.07;18.20;;;;;;;4.66;100.00;100056.75;123943;1099;104248;-80
2024/03/13 01:26:34;;;;;;;29.77;16.97;;;;;;;4.65;100.00;100063.63;123919;1099;104345;-79
2024/03/13 01:29:06;;;;;;;31.00;17.73;;;;;;;4.64;100.00;100061.86;123901;1099;104271;-79
2024/03/13 01:31:38;;;;;;;30.93;17.50;;;;;;;4.63;100.00;100054.87;123835;1099;104335;-78
2024/03/13 01:34:10;;;;;;;31.73;17.70;;;;;;;4.63;100.00;100066.98;123951;1099;104347;-79
2024/03/13 01:39:30;;;;;;;33.23;17.57;;;;;;;4.64;100.00;100054.06;123858;1099;104319;-79
2024/03/13 01:56:30;;;;;;;31.40;15.93;;;;;;;4.53;100.00;100044.79;123806;1099;104322;-78
2024/03/13 01:59:09;;;;;;;31.77;16.27;;;;;;;4.54;100.00;100050.91;123890;1099;104254;-78
2024/03/13 02:04:30;;;;;;;34.20;16.40;;;;;;;4.52;100.00;100043.03;123824;1099;104389;-77
2024/03/13 02:07:02;;;;;;;29.10;16.17;;;;;;;4.52;100.00;100045.62;123903;1099;104269;-79
2024/03/13 02:09:34;;;;;;;31.60;16.77;;;;;;;4.53;100.00;100039.59;123881;1098;104291;-78
2024/03/13 02:12:11;;;;;;;28.33;15.93;;;;;;;4.57;100.00;100038.95;123806;1099;104501;-78
2024/03/13 02:14:42;;;;;;;28.17;15.33;;;;;;;4.57;100.00;100040.67;123915;1099;104257;-78
2024/03/13 02:17:14;;;;;;;28.33;15.40;;;;;;;4.56;100.00;100034.56;123890;1099;104281;-78
2024/03/13 02:19:46;;;;;;;30.47;14.83;;;;;;;4.57;100.00;100036.36;123715;1099;104227;-78
2024/03/13 02:22:19;;;;;;;27.83;15.30;;;;;;;4.58;100.00;100040.75;123887;1099;104290;-78
2024/03/13 02:24:50;;;;;;;29.00;15.03;;;;;;;4.61;100.00;100042.59;124170;1098;104348;-79
2024/03/13 02:27:21;;;;;;;29.13;15.03;;;;;;;4.62;100.00;100041.80;123847;1099;104344;-80
2024/03/13 02:29:52;;;;;;;28.17;14.73;;;;;;;4.64;100.00;100038.47;123869;1099;104334;-79
2024/03/13 02:32:24;;;;;;;27.53;14.07;;;;;;;4.64;100.00;100035.88;123846;1099;105466;-80
2024/03/13 02:34:56;;;;;;;27.80;14.15;;;;;;;4.65;100.00;100035.04;123839;1099;104222;-79
2024/03/13 02:37:27;;;;;;;27.00;14.05;;;;;;;4.65;100.00;100029.84;123989;1099;104345;-79
2024/03/13 02:39:59;;;;;;;30.90;16.43;;;;;;;4.65;100.00;100027.24;123934;1099;104312;-79
2024/03/13 02:42:30;;;;;;;32.03;16.73;;;;;;;4.65;100.00;100022.05;123922;1099;104219;-78
2024/03/13 02:45:04;;;;;;;34.53;17.67;;;;;;;4.68;100.00;100021.32;124143;1099;104386;-78
2024/03/13 02:47:36;;;;;;;34.80;18.17;;;;;;;4.68;100.00;100024.80;124024;1098;104380;-79
2024/03/13 02:50:11;;;;;;;35.43;19.20;;;;;;;4.68;100.00;100019.61;123823;1099;104320;-78
2024/03/13 02:52:43;;;;;;;36.00;19.83;;;;;;;4.68;100.00;100017.00;124054;1098;104255;-78
2024/03/13 02:55:15;;;;;;;34.90;19.07;;;;;;;4.70;100.00;100021.40;124001;1099;104462;-78
2024/03/13 02:57:46;;;;;;;38.10;19.57;;;;;;;4.72;100.00;100018.08;123585;1099;104313;-77
2024/03/13 03:00:17;;;;;;;33.27;19.00;;;;;;;4.76;100.00;100016.52;123944;1099;104240;-78
2024/03/13 03:02:49;;;;;;;29.80;16.85;;;;;;;4.75;100.00;100020.80;123815;1098;104718;-81
2024/03/13 03:05:20;;;;;;;34.00;17.77;;;;;;;4.77;100.00;100027.00;123847;1099;104354;-78
2024/03/13 03:07:52;;;;;;;31.43;17.27;;;;;;;4.76;100.00;100024.31;123840;1099;104289;-79
2024/03/13 03:10:24;;;;;;;33.87;16.87;;;;;;;4.76;100.00;100022.59;123825;1099;104463;-80
2024/03/13 03:12:55;;;;;;;33.33;16.80;;;;;;;4.75;100.00;100026.00;123905;1099;104253;-79
2024/03/13 03:15:29;;;;;;;32.50;16.27;;;;;;;4.75;100.00;100018.20;123880;1099;104289;-79
2024/03/13 03:18:00;;;;;;;30.08;15.58;;;;;;;4.78;100.00;100027.88;123917;1099;104820;-79
2024/03/13 03:20:32;;;;;;;30.37;14.93;;;;;;;4.74;100.00;100012.95;123803;1098;104330;-79
2024/03/13 03:23:04;;;;;;;32.37;16.20;;;;;;;4.68;100.00;100017.00;123541;1099;104213;-79
2024/03/13 03:25:35;;;;;;;31.43;15.63;;;;;;;4.67;100.00;100015.24;124123;1098;104299;-79
2024/03/13 03:28:08;;;;;;;29.33;15.50;;;;;;;4.70;100.00;100013.60;123865;1099;104347;-80
2024/03/13 03:30:42;;;;;;;27.57;15.27;;;;;;;4.70;100.00;100014.48;123887;1099;104354;-79
2024/03/13 03:33:13;;;;;;;30.57;15.40;;;;;;;4.72;100.00;100018.08;123844;1099;104345;-79
2024/03/13 03:35:45;;;;;;;29.47;15.60;;;;;;;4.72;100.00;100014.56;123506;1099;104348;-79
2024/03/13 03:38:17;;;;;;;30.30;15.67;;;;;;;4.71;100.00;100016.28;123967;1099;104377;-80
2024/03/13 03:40:48;;;;;;;31.70;15.60;;;;;;;4.72;100.00;100015.48;123925;1099;104328;-79
2024/03/13 03:43:19;;;;;;;31.87;14.83;;;;;;;4.72;100.00;100014.56;123874;1099;104264;-80
2024/03/13 03:45:53;;;;;;;29.33;14.90;;;;;;;4.74;100.00;100008.64;123901;1099;104258;-79
2024/03/13 03:48:24;;;;;;;29.32;14.28;;;;;;;4.74;100.00;100002.56;124168;1099;104355;-78
2024/03/13 03:50:55;;;;;;;26.80;13.63;;;;;;;4.75;100.00;99991.33;124005;1099;104469;-80
2024/03/13 03:53:27;;;;;;;28.00;14.07;;;;;;;4.73;100.00;100009.45;123853;1098;104344;-80
2024/03/13 03:55:58;;;;;;;28.70;15.00;;;;;;;4.74;100.00;100010.36;123992;1099;104331;-79
2024/03/13 03:58:29;;;;;;;28.17;13.93;;;;;;;4.74;100.00;99995.64;123926;1099;104245;-79
2024/03/13 04:01:00;;;;;;;27.97;13.83;;;;;;;4.76;100.00;99995.72;123975;1099;104213;-78
2024/03/13 04:03:35;;;;;;;29.50;15.10;;;;;;;4.72;100.00;100002.48;123886;1099;104335;-79
2024/03/13 04:06:08;;;;;;;28.00;14.03;;;;;;;4.72;100.00;100009.36;123989;1099;104313;-79
2024/03/13 04:08:39;;;;;;;29.00;14.70;;;;;;;4.72;100.00;100004.17;124029;1099;104271;-79
2024/03/13 04:11:10;;;;;;;27.67;13.57;;;;;;;4.73;100.00;100008.56;123863;1099;104309;-81
2024/03/13 04:13:44;;;;;;;24.17;11.80;;;;;;;4.74;100.00;100007.77;123994;1099;104274;-79
2024/03/13 04:16:16;;;;;;;24.50;12.63;;;;;;;4.73;100.00;100001.64;123851;1099;104288;-80
2024/03/13 04:18:47;;;;;;;27.17;13.27;;;;;;;4.73;100.00;100008.56;123886;1099;104392;-80
2024/03/13 04:21:20;;;;;;;25.60;12.87;;;;;;;4.75;100.00;100006.92;123986;1099;104351;-80
2024/03/13 04:23:53;;;;;;;27.17;13.50;;;;;;;4.75;100.00;100010.41;124030;1099;105447;-81
2024/03/13 04:26:24;;;;;;;26.20;13.23;;;;;;;4.75;100.00;100004.33;123720;1099;104312;-79
2024/03/13 04:28:57;;;;;;;22.70;11.87;;;;;;;4.76;100.00;100007.00;123839;1099;104358;-80
2024/03/13 04:31:28;;;;;;;24.10;12.00;;;;;;;4.73;100.00;100008.56;123862;1099;104344;-79
2024/03/13 04:33:59;;;;;;;21.87;11.30;;;;;;;4.71;100.00;100007.60;123812;1098;104318;-80
2024/03/13 04:36:32;;;;;;;22.50;11.53;;;;;;;4.71;100.00;100013.69;123799;1099;104766;-79
2024/03/13 04:39:05;;;;;;;24.80;12.27;;;;;;;4.70;100.00;100006.69;123974;1099;104226;-79
2024/03/13 04:41:39;;;;;;;24.07;11.93;;;;;;;4.73;100.00;100009.45;123786;1099;104245;-80
2024/03/13 04:44:09;;;;;;;;;;;;;;;4.76;100.00;100011.32;123881;1099;104226;-79
2024/03/13 04:46:43;;;;;;;24.73;12.77;;;;;;;4.77;100.00;100010.48;124149;1099;104274;-79
2024/03/13 04:49:14;;;;;;;25.23;13.25;;;;;;;4.77;100.00;100007.88;124050;1099;104329;-80
2024/03/13 04:51:47;;;;;;;25.13;12.17;;;;;;;4.78;100.00;100013.16;123935;1099;104376;-80
2024/03/13 04:54:18;;;;;;;27.17;13.07;;;;;;;4.76;100.00;100001.80;123934;1099;104345;-80
2024/03/13 04:56:49;;;;;;;25.90;13.00;;;;;;;4.76;100.00;100000.92;123870;1099;104495;-80
2024/03/13 04:59:20;;;;;;;25.83;13.13;;;;;;;4.77;100.00;100007.88;123782;1099;104258;-84
2024/03/13 05:01:52;;;;;;;27.03;12.70;;;;;;;4.79;100.00;100003.67;123720;1099;104278;-79
2024/03/13 05:04:23;;;;;;;26.00;13.60;;;;;;;4.78;100.00;100018.36;123906;1099;104197;-79
2024/03/13 05:07:01;;;;;;;32.17;14.53;;;;;;;4.79;100.00;100011.48;124037;1099;104296;-80
2024/03/13 05:09:34;;;;;;;34.47;18.20;;;;;;;4.81;100.00;100005.52;123938;1099;104418;-79
2024/03/13 05:12:05;;;;;;;36.00;17.25;;;;;;;4.84;100.00;100010.88;124007;1099;104242;-79
2024/03/13 05:14:37;;;;;;;33.77;18.83;;;;;;;4.83;100.00;100006.52;123849;1099;104274;-79
2024/03/13 05:17:15;;;;;;;38.70;16.30;;;;;;;4.83;100.00;100013.39;123842;1099;104273;-79
2024/03/13 05:19:46;;;;;;;36.70;17.77;;;;;;;4.84;100.00;100007.39;123964;1099;104277;-79
2024/03/13 05:22:18;;;;;;;27.35;13.25;;;;;;;4.83;100.00;100008.20;123519;1099;104387;-79
2024/03/13 05:24:50;;;;;;;26.43;13.80;;;;;;;4.80;100.00;100015.84;124051;1099;104322;-79
2024/03/13 05:27:23;;;;;;;29.27;13.90;;;;;;;4.78;100.00;100015.76;124048;1099;104361;-79
2024/03/13 05:29:54;;;;;;;28.35;13.25;;;;;;;4.81;100.00;100015.03;124227;1099;104640;-80
2024/03/13 05:32:26;;;;;;;25.17;12.97;;;;;;;4.81;100.00;100023.72;123855;1099;104344;-79
2024/03/13 05:34:58;;;;;;;24.70;11.43;;;;;;;4.80;100.00;100021.03;123992;1098;105600;-79
2024/03/13 05:37:29;;;;;;;25.30;11.37;;;;;;;4.79;100.00;100014.08;124119;1099;104275;-78
2024/03/13 05:40:01;;;;;;;24.60;11.97;;;;;;;4.81;100.00;100030.63;123916;1099;104347;-79
2024/03/13 05:42:32;;;;;;;24.47;11.90;;;;;;;4.84;100.00;100034.27;124032;1099;104274;-78
2024/03/13 05:45:04;;;;;;;24.10;12.27;;;;;;;4.86;100.00;100030.06;123737;1099;104245;-78
2024/03/13 05:47:35;;;;;;;25.17;10.87;;;;;;;4.86;100.00;100034.34;123659;1099;104275;-77
2024/03/13 05:50:08;;;;;;;21.93;10.17;;;;;;;4.87;100.00;100025.75;123727;1099;104269;-77
2024/03/13 05:52:39;;;;;;;23.47;10.47;;;;;;;4.87;100.00;100038.75;123367;1099;104334;-77
2024/03/13 05:55:11;;;;;;;20.30;9.53;;;;;;;4.88;100.00;100031.83;124015;1099;104418;-78
2024/03/13 05:57:42;;;;;;;21.43;10.07;;;;;;;4.86;100.00;100032.66;123902;1099;118027;-78
2024/03/13 06:00:17;;;;;;;19.57;8.60;;;;;;;4.90;100.00;100040.63;123901;1099;104385;-76
2024/03/13 06:02:49;;;;;;;21.20;9.03;;;;;;;4.84;100.00;100039.47;123907;1099;104342;-78
2024/03/13 06:05:23;;;;;;;19.33;8.07;;;;;;;4.85;100.00;100033.47;123929;1099;104249;-76
2024/03/13 06:07:57;;;;;;;19.42;9.03;;;;;;;4.86;100.00;100043.06;124269;1099;104236;-77
2024/03/13 06:10:29;;;;;;;20.03;9.33;;;;;;;4.87;100.00;100043.95;124091;1099;104245;-76
2024/03/13 06:13:01;;;;;;;19.30;9.17;;;;;;;4.86;100.00;100047.34;124508;1099;102489;-76
2024/03/13 06:15:32;;;;;;;19.63;9.20;;;;;;;4.87;100.00;100051.74;124204;1099;104239;-76
2024/03/13 06:18:04;;;;;;;19.60;9.23;;;;;;;4.86;100.00;100044.75;123967;1099;104248;-76
2024/03/13 06:20:36;;;;;;;19.73;8.50;;;;;;;4.84;100.00;100059.39;124493;1098;104270;-77
2024/03/13 06:23:07;;;;;;;19.77;8.70;;;;;;;4.85;100.00;100056.86;124812;1099;104346;-76
2024/03/13 06:25:41;;;;;;;18.63;8.10;;;;;;;4.88;100.00;100057.83;123956;1099;104354;-76
2024/03/13 06:31:03;;;;;;;24.27;9.37;;;;;;;4.85;100.00;100051.67;124276;1099;104284;-77
2024/03/13 06:33:34;;;;;;;22.30;9.67;;;;;;;4.88;100.00;100050.94;124834;1099;104188;-78
2024/03/13 06:36:08;;;;;;;19.50;9.30;;;;;;;4.91;100.00;100055.38;124703;1099;104169;-77
2024/03/13 06:38:39;;;;;;;19.53;9.10;;;;;;;4.91;100.00;100057.98;124639;1097;106996;-77
2024/03/13 06:41:10;;;;;;;20.00;9.57;;;;;;;4.88;100.00;100052.62;124589;1099;104397;-78
2024/03/13 06:43:42;;;;;;;19.13;9.17;;;;;;;4.87;100.00;100059.55;124507;1099;104213;-78
2024/03/13 06:46:14;;;;;;;18.77;8.83;;;;;;;4.86;100.00;100053.46;124865;1099;104168;-78
2024/03/13 06:48:45;;;;;;;21.30;9.07;;;;;;;4.85;100.00;100053.39;124836;1098;119035;-80
2024/03/13 06:51:16;;;;;;;18.37;8.27;;;;;;;4.86;100.00;100057.75;124733;1099;104274;-78
2024/03/13 06:53:47;;;;;;;18.60;8.20;;;;;;;4.82;100.00;100058.42;124817;1099;104200;-81
2024/03/13 06:56:19;;;;;;;19.33;8.73;;;;;;;4.82;100.00;100061.02;124805;1099;104336;-77
2024/03/13 06:58:50;;;;;;;20.70;8.07;;;;;;;4.78;100.00;100054.75;124925;1099;104252;-78
2024/03/13 07:01:23;;;;;;;23.25;8.60;;;;;;;4.74;100.00;100054.55;124777;1099;102269;-79
2024/03/13 07:03:54;;;;;;;19.13;8.30;;;;;;;4.75;100.00;100058.91;124746;1099;104287;-79
2024/03/13 07:06:26;;;;;;;20.40;8.83;;;;;;;4.76;100.00;100060.70;125969;1098;104162;-80
2024/03/13 07:08:57;;;;;;;21.17;8.23;;;;;;;4.79;100.00;100063.47;125409;1099;104271;-80
2024/03/13 07:11:29;;;;;;;18.83;8.50;;;;;;;4.80;100.00;100062.62;125061;1098;104285;-80
2024/03/13 07:14:03;;;;;;;16.77;7.67;;;;;;;4.78;100.00;100056.47;125232;1099;104242;-81
2024/03/13 07:16:36;;;;;;;19.87;8.43;;;;;;;4.79;100.00;100055.67;124952;1099;104270;-81
2024/03/13 07:19:09;;;;;;;19.20;8.13;;;;;;;4.80;100.00;100060.03;125006;1098;104242;-81
2024/03/13 07:21:41;;;;;;;18.00;8.57;;;;;;;4.78;100.00;100064.27;125067;1099;104242;-78
2024/03/13 07:24:12;;;;;;;18.33;8.07;;;;;;;4.75;100.00;100064.11;124491;1099;104697;-79
2024/03/13 07:26:46;;;;;;;18.30;8.90;;;;;;;4.75;100.00;100066.70;124731;1099;104318;-79
2024/03/13 07:29:17;;;;;;;18.80;9.10;;;;;;;4.74;100.00;100059.75;125003;1099;104239;-79
2024/03/13 07:31:48;;;;;;;19.80;9.30;;;;;;;4.72;100.00;100062.27;125417;1099;104207;-79
2024/03/13 07:34:19;;;;;;;20.73;10.40;;;;;;;4.73;100.00;100056.23;124953;1099;104172;-79
2024/03/13 07:36:51;;;;;;;20.10;9.47;;;;;;;4.75;100.00;100067.59;125002;1098;104254;-79
2024/03/13 07:39:25;;;;;;;19.00;8.87;;;;;;;4.78;100.00;100061.67;124662;1099;104169;-80
2024/03/13 07:41:57;;;;;;;20.90;9.27;;;;;;;4.80;100.00;100067.83;124925;1099;103290;-80
2024/03/13 07:44:28;;;;;;;19.60;9.00;;;;;;;4.80;100.00;100062.62;124775;1099;104249;-80
2024/03/13 07:46:59;;;;;;;19.30;8.53;;;;;;;4.74;100.00;100065.83;124908;1099;104223;-79
2024/03/13 07:49:32;;;;;;;18.77;8.43;;;;;;;4.73;100.00;100071.83;124945;1099;104169;-80
2024/03/13 07:52:04;;;;;;;17.27;8.03;;;;;;;4.71;100.00;100070.86;124988;1099;104387;-80
2024/03/13 07:54:37;;;;;;;18.70;8.47;;;;;;;4.74;100.00;100071.02;125084;1098;103668;-80
2024/03/13 07:57:17;;;;;;;16.40;7.87;;;;;;;4.77;100.00;100075.47;124995;1098;104245;-80
2024/03/13 07:59:49;;;;;;;16.97;8.50;;;;;;;4.78;100.00;100072.95;124983;1099;104195;-79
2024/03/13 08:02:21;;;;;;;18.70;8.73;;;;;;;4.84;100.00;100077.58;125399;1099;102382;-80
2024/03/13 08:04:53;;;;;;;17.10;7.70;;;;;;;4.87;100.00;100069.94;125034;1099;104213;-79
2024/03/13 08:07:26;;;;;;;18.53;8.90;;;;;;;4.90;100.00;100072.70;125039;1099;104245;-81
2024/03/13 08:09:58;;;;;;;18.48;8.60;;;;;;;4.91;100.00;100076.19;125132;1099;103139;-80
2024/03/13 08:12:30;;;;;;;17.97;7.83;;;;;;;4.91;100.00;100074.50;125025;1099;102399;-80
2024/03/13 08:15:01;;;;;;;19.33;8.37;;;;;;;4.92;100.00;100072.78;124781;1099;104245;-79
2024/03/13 08:17:33;;;;;;;18.33;8.47;;;;;;;4.95;100.00;100075.54;125131;1099;102726;-80
2024/03/13 08:20:05;;;;;;;16.00;7.50;;;;;;;5.00;100.00;100080.17;124927;1099;104690;-79
2024/03/13 08:22:36;;;;;;;16.90;8.00;;;;;;;5.00;100.00;100079.26;124992;1099;104297;-79
2024/03/13 08:25:31;;;;;;;15.87;7.10;;;;;;;4.97;100.00;100073.90;124871;1099;104179;-79
2024/03/13 08:28:03;;;;;;;15.17;7.00;;;;;;;4.94;100.00;100077.26;124818;1099;104328;-79
2024/03/13 08:30:34;;;;;;;15.87;6.90;;;;;;;4.91;100.00;100074.50;124858;1099;102391;-79
2024/03/13 08:33:09;;;;;;;16.93;7.33;;;;;;;4.93;100.00;100077.18;124710;1099;102854;-80
2024/03/13 08:35:55;;;;;;;18.50;6.67;;;;;;;4.94;100.00;100068.55;124974;1099;104354;-80
2024/03/13 08:38:27;;;;;;;16.33;6.37;;;;;;;4.91;100.00;100074.50;124878;1098;104213;-78
2024/03/13 08:40:59;;;;;;;14.77;6.50;;;;;;;4.88;100.00;100076.94;124620;1099;104345;-79
2024/03/13 08:43:31;;;;;;;15.20;6.97;;;;;;;4.86;100.00;100082.06;124573;1099;103631;-79
2024/03/13 08:46:04;;;;;;;15.60;7.28;;;;;;;4.89;100.00;100081.30;125067;1099;104271;-79
2024/03/13 08:48:38;;;;;;;16.03;7.63;;;;;;;4.91;100.00;100079.70;125288;1099;104188;-79
2024/03/13 08:51:10;;;;;;;17.23;7.77;;;;;;;4.90;100.00;100077.91;125390;1099;102893;-79
2024/03/13 08:53:41;;;;;;;14.85;7.25;;;;;;;4.89;100.00;100077.83;125294;1099;104286;-80
2024/03/13 08:56:12;;;;;;;19.50;7.30;;;;;;;4.89;100.00;100080.42;125000;1099;104437;-79
2024/03/13 08:58:45;;;;;;;17.00;7.77;;;;;;;4.89;100.00;100085.63;124978;1099;104248;-79
2024/03/13 09:01:16;;;;;;;17.07;7.93;;;;;;;4.85;100.00;100085.47;125196;1099;102607;-79
2024/03/13 09:03:47;;;;;;;18.07;8.30;;;;;;;4.87;100.00;100082.95;125209;1098;104322;-79
2024/03/13 09:06:19;;;;;;;18.40;8.00;;;;;;;4.90;100.00;100088.30;125280;1098;104645;-79
2024/03/13 09:08:50;;;;;;;17.63;8.10;;;;;;;4.93;100.00;100087.58;125166;1099;104172;-79
2024/03/13 09:11:22;;;;;;;17.57;8.03;;;;;;;4.95;100.00;100086.83;124755;1099;103408;-79
2024/03/13 09:13:53;;;;;;;18.47;8.27;;;;;;;5.00;100.00;100087.98;124975;1099;104277;-79
2024/03/13 09:16:27;;;;;;;20.37;8.50;;;;;;;5.06;100.00;100089.09;125135;1098;104251;-78
2024/03/13 09:18:57;;;;;;;;;;;;;;;5.08;100.00;100084.85;124646;1099;104331;-79
2024/03/13 09:21:28;;;;;;;16.83;7.80;;;;;;;5.08;100.00;100090.05;124858;1098;104118;-79
2024/03/13 09:23:59;;;;;;;17.30;8.23;;;;;;;5.08;100.00;100088.37;124851;1099;104405;-79
2024/03/13 09:26:35;;;;;;;16.35;7.30;;;;;;;5.07;100.00;100090.89;124835;1098;104242;-77
2024/03/13 09:29:06;;;;;;;16.97;7.10;;;;;;;5.04;100.00;100086.41;124995;1099;104172;-79
2024/03/13 09:31:42;;;;;;;16.73;7.97;;;;;;;5.08;100.00;100097.86;124854;1099;104281;-78
2024/03/13 09:34:14;;;;;;;16.63;7.83;;;;;;;5.13;100.00;100096.41;124761;1099;104242;-79
2024/03/13 09:36:45;;;;;;;19.60;8.60;;;;;;;5.17;100.00;100095.72;124881;1099;104184;-78
2024/03/13 09:39:16;;;;;;;17.83;8.07;;;;;;;5.20;100.00;100096.80;124943;1099;103458;-79
2024/03/13 09:41:53;;;;;;;17.90;7.60;;;;;;;5.25;100.00;100094.43;124772;1099;104191;-78
2024/03/13 09:44:29;;;;;;;18.30;7.97;;;;;;;5.24;100.00;100103.04;124650;1099;103322;-79
2024/03/13 09:47:05;;;;;;;19.53;7.87;;;;;;;5.15;100.00;100100.84;124882;1099;104312;-79
2024/03/13 09:49:38;;;;;;;20.00;7.63;;;;;;;5.13;100.00;100101.61;124898;1098;104345;-78
2024/03/13 09:52:12;;;;;;;18.25;8.43;;;;;;;5.13;100.00;100102.48;125015;1099;102945;-79
2024/03/13 09:54:46;;;;;;;18.13;7.87;;;;;;;5.16;100.00;100104.36;124325;1099;104271;-78
2024/03/13 09:57:20;;;;;;;17.30;8.03;;;;;;;5.17;100.00;100106.13;125042;1099;104159;-79
2024/03/13 09:59:56;;;;;;;16.23;7.85;;;;;;;5.20;100.00;100102.00;125123;1099;104275;-78
2024/03/13 10:02:39;;;;;;;16.63;7.43;;;;;;;5.20;100.00;100104.60;124502;1099;104240;-79
2024/03/13 10:05:12;;;;;;;17.33;8.37;;;;;;;5.22;100.00;100107.28;125003;1099;104377;-79
2024/03/13 10:07:45;;;;;;;19.05;8.30;;;;;;;5.28;100.00;100104.95;124888;1099;104226;-79
2024/03/13 10:10:24;;;;;;;19.40;8.20;;;;;;;5.32;100.00;100091.30;124508;1099;102012;-77
2024/03/13 10:12:56;;;;;;;18.67;8.47;;;;;;;5.32;100.00;100091.30;124693;1099;118411;-78
2024/03/13 10:15:29;;;;;;;18.40;7.90;;;;;;;5.29;100.00;100090.27;125783;1098;102921;-79
2024/03/13 10:18:08;;;;;;;16.83;7.53;;;;;;;5.22;100.00;100102.08;124984;1098;104300;-78
2024/03/13 10:20:54;;;;;;;16.67;7.73;;;;;;;5.19;100.00;100102.80;124985;1099;103143;-79
2024/03/13 10:23:28;;;;;;;20.60;8.10;;;;;;;5.16;100.00;100099.16;125250;1099;104233;-80
2024/03/13 10:26:01;;;;;;;17.73;7.40;;;;;;;5.15;100.00;100105.17;124539;1099;104249;-79
2024/03/13 10:28:41;;;;;;;16.43;7.77;;;;;;;5.13;100.00;100099.89;125036;1099;103421;-79
2024/03/13 10:31:15;;;;;;;17.80;7.67;;;;;;;5.18;100.00;100094.92;124642;1099;104222;-79
2024/03/13 10:33:47;;;;;;;17.15;7.80;;;;;;;5.18;100.00;100095.80;125257;1099;104381;-79
2024/03/13 10:36:19;;;;;;;16.07;7.40;;;;;;;5.20;100.00;100098.48;124531;1102;104332;-79
2024/03/13 10:38:53;;;;;;;18.77;7.47;;;;;;;5.24;100.00;100091.75;125091;1099;104302;-79
2024/03/13 10:41:24;;;;;;;17.70;7.87;;;;;;;5.21;100.00;100084.67;124775;1099;104290;-81
2024/03/13 10:43:59;;;;;;;16.80;7.63;;;;;;;5.21;100.00;100095.95;124863;1099;104386;-78
2024/03/13 10:46:34;;;;;;;16.30;7.77;;;;;;;5.17;100.00;100088.84;125151;1099;104245;-79
2024/03/13 10:49:04;;;;;;;;;;;;;;;5.20;100.00;100082.88;125391;1099;104223;-80
2024/03/13 10:51:36;;;;;;;15.47;6.57;;;;;;;5.24;100.00;100084.83;124952;1099;104354;-79
2024/03/13 10:54:10;;;;;;;15.65;7.00;;;;;;;5.26;100.00;100080.58;125148;1099;106671;-79
2024/03/13 10:56:50;;;;;;;14.43;6.60;;;;;;;5.25;100.00;100078.82;125259;1099;104172;-80
2024/03/13 10:59:24;;;;;;;14.17;6.60;;;;;;;5.23;100.00;100077.83;125276;1099;104268;-80
2024/03/13 11:02:00;;;;;;;11.83;5.83;;;;;;;5.15;100.00;100084.36;125419;1098;102992;-80
2024/03/13 11:04:33;;;;;;;12.80;5.97;;;;;;;5.12;100.00;100084.20;124891;1099;121819;-80
2024/03/13 11:07:07;;;;;;;12.30;5.53;;;;;;;5.07;100.00;100083.09;125430;1098;104214;-79
2024/03/13 11:09:38;;;;;;;;;;;;;;;4.97;100.00;100077.42;125295;1099;104341;-79
2024/03/13 11:12:19;;;;;;;13.73;6.60;;;;;;;4.97;100.00;100082.62;125005;1099;104309;-79
2024/03/13 11:14:56;;;;;;;11.27;5.57;;;;;;;5.01;100.00;100081.94;124919;1099;104159;-80
2024/03/13 11:17:29;;;;;;;13.80;6.37;;;;;;;5.01;100.00;100081.94;125271;1099;104213;-79
2024/03/13 11:20:06;;;;;;;14.57;6.73;;;;;;;5.03;100.00;100077.73;125462;1099;104072;-80
2024/03/13 11:22:38;;;;;;;11.93;5.70;;;;;;;5.06;100.00;100083.89;126772;1098;104220;-79
2024/03/13 11:25:18;;;;;;;11.90;6.00;;;;;;;4.99;100.00;100078.38;125105;1099;109474;-80
2024/03/13 11:27:56;;;;;;;15.13;6.07;;;;;;;4.96;100.00;100080.82;125429;1099;103436;-80
2024/03/13 11:30:29;;;;;;;14.00;6.70;;;;;;;4.95;100.00;100083.34;124770;1099;104175;-79
2024/03/13 11:33:04;;;;;;;16.23;6.90;;;;;;;4.95;100.00;100081.63;124842;1099;104178;-79
2024/03/13 11:35:36;;;;;;;13.70;5.90;;;;;;;4.89;100.00;100085.63;125561;1099;104173;-80
2024/03/13 11:38:12;;;;;;;15.20;7.40;;;;;;;4.82;100.00;100079.22;125850;1099;102012;-79
2024/03/13 11:40:44;;;;;;;16.00;7.10;;;;;;;4.85;100.00;100079.38;125936;1099;103324;-80
2024/03/13 11:43:22;;;;;;;15.77;7.60;;;;;;;4.91;100.00;100081.38;125885;1099;104351;-79
2024/03/13 11:45:54;;;;;;;15.53;6.83;;;;;;;4.91;100.00;100074.50;124825;1099;102045;-79